sensor_id;sensor_type;location;lat;lon;timestamp;pressure;altitude;pressure_sealevel;temperature;humidity
41513;BME280;27244;59.940;30.280;2024-01-30T00:02:04;102266.84;;;25.47;22.61
41513;BME280;27244;59.940;30.280;2024-01-30T00:04:33;102270.47;;;25.47;22.61
41513;BME280;27244;59.940;30.280;2024-01-30T00:07:00;102268.13;;;25.42;22.79
41513;BME280;27244;59.940;30.280;2024-01-30T00:09:27;102274.97;;;25.45;22.70
41513;BME280;27244;59.940;30.280;2024-01-30T00:11:54;102280.25;;;25.43;22.63
41513;BME280;27244;59.940;30.280;2024-01-30T00:14:21;102278.63;;;25.42;22.88
41513;BME280;27244;59.940;30.280;2024-01-30T00:16:50;102271.78;;;25.39;22.83
41513;BME280;27244;59.940;30.280;2024-01-30T00:19:18;102276.59;;;25.42;22.52
41513;BME280;27244;59.940;30.280;2024-01-30T00:21:45;102279.84;;;25.41;22.53
41513;BME280;27244;59.940;30.280;2024-01-30T00:24:12;102270.56;;;25.40;22.84
41513;BME280;27244;59.940;30.280;2024-01-30T00:26:40;102272.22;;;25.38;22.49
41513;BME280;27244;59.940;30.280;2024-01-30T00:29:07;102275.03;;;25.38;22.67
41513;BME280;27244;59.940;30.280;2024-01-30T00:31:35;102275.88;;;25.35;22.58
41513;BME280;27244;59.940;30.280;2024-01-30T00:34:02;102286.34;;;25.38;22.47
41513;BME280;27244;59.940;30.280;2024-01-30T00:36:30;102287.94;;;25.39;22.70
41513;BME280;27244;59.940;30.280;2024-01-30T00:38:57;102284.75;;;25.33;22.65
41513;BME280;27244;59.940;30.280;2024-01-30T00:41:24;102299.28;;;25.35;22.36
41513;BME280;27244;59.940;30.280;2024-01-30T00:43:52;102296.50;;;25.32;22.56
41513;BME280;27244;59.940;30.280;2024-01-30T00:46:19;102305.34;;;25.34;22.44
41513;BME280;27244;59.940;30.280;2024-01-30T00:48:46;102295.25;;;25.33;22.79
41513;BME280;27244;59.940;30.280;2024-01-30T00:51:13;102298.06;;;25.33;22.46
41513;BME280;27244;59.940;30.280;2024-01-30T00:53:42;102304.19;;;25.28;22.83
41513;BME280;27244;59.940;30.280;2024-01-30T00:56:09;102314.22;;;25.32;22.80
41513;BME280;27244;59.940;30.280;2024-01-30T00:58:36;102309.00;;;25.31;22.47
41513;BME280;27244;59.940;30.280;2024-01-30T01:01:03;102321.50;;;25.30;22.39
41513;BME280;27244;59.940;30.280;2024-01-30T01:03:33;102322.72;;;25.29;22.31
41513;BME280;27244;59.940;30.280;2024-01-30T01:06:00;102317.88;;;25.29;22.52
41513;BME280;27244;59.940;30.280;2024-01-30T01:08:27;102317.06;;;25.29;22.63
41513;BME280;27244;59.940;30.280;2024-01-30T01:10:55;102309.88;;;25.24;22.53
41513;BME280;27244;59.940;30.280;2024-01-30T01:13:23;102328.81;;;25.27;22.40
41513;BME280;27244;59.940;30.280;2024-01-30T01:15:51;102327.22;;;25.23;22.68
41513;BME280;27244;59.940;30.280;2024-01-30T01:18:19;102325.19;;;25.27;22.69
41513;BME280;27244;59.940;30.280;2024-01-30T01:20:46;102332.88;;;25.23;22.37
41513;BME280;27244;59.940;30.280;2024-01-30T01:23:13;102350.63;;;25.23;22.50
41513;BME280;27244;59.940;30.280;2024-01-30T01:25:40;102353.06;;;25.25;22.18
41513;BME280;27244;59.940;30.280;2024-01-30T01:28:08;102323.75;;;25.05;22.29
41513;BME280;27244;59.940;30.280;2024-01-30T01:30:35;102355.88;;;25.25;22.42
41513;BME280;27244;59.940;30.280;2024-01-30T01:33:03;102350.66;;;25.20;22.37
41513;BME280;27244;59.940;30.280;2024-01-30T01:35:30;102357.03;;;25.31;22.35
41513;BME280;27244;59.940;30.280;2024-01-30T01:37:57;102357.84;;;25.31;22.19
41513;BME280;27244;59.940;30.280;2024-01-30T01:40:26;102359.84;;;25.31;22.30
41513;BME280;27244;59.940;30.280;2024-01-30T01:42:55;102361.47;;;25.32;22.28
41513;BME280;27244;59.940;30.280;2024-01-30T01:45:23;102365.88;;;25.33;22.42
41513;BME280;27244;59.940;30.280;2024-01-30T01:47:51;102367.16;;;25.28;22.46
41513;BME280;27244;59.940;30.280;2024-01-30T01:50:19;102375.19;;;25.30;22.44
41513;BME280;27244;59.940;30.280;2024-01-30T01:52:47;102378.03;;;25.26;22.40
41513;BME280;27244;59.940;30.280;2024-01-30T01:55:15;102388.13;;;25.27;22.25
41513;BME280;27244;59.940;30.280;2024-01-30T01:57:43;102389.78;;;25.25;22.27
41513;BME280;27244;59.940;30.280;2024-01-30T02:00:12;102401.00;;;25.32;22.32
41513;BME280;27244;59.940;30.280;2024-01-30T02:02:45;102395.38;;;25.28;22.23
41513;BME280;27244;59.940;30.280;2024-01-30T02:05:12;102390.53;;;25.29;22.11
41513;BME280;27244;59.940;30.280;2024-01-30T02:07:39;102388.94;;;25.28;22.49
41513;BME280;27244;59.940;30.280;2024-01-30T02:10:08;102386.50;;;25.26;22.46
41513;BME280;27244;59.940;30.280;2024-01-30T02:12:35;102397.00;;;25.26;22.44
41513;BME280;27244;59.940;30.280;2024-01-30T02:15:03;102397.84;;;25.23;22.21
41513;BME280;27244;59.940;30.280;2024-01-30T02:17:30;102405.47;;;25.26;22.21
41513;BME280;27244;59.940;30.280;2024-01-30T02:19:59;102394.63;;;25.24;22.25
41513;BME280;27244;59.940;30.280;2024-01-30T02:22:27;102390.56;;;25.22;22.21
41513;BME280;27244;59.940;30.280;2024-01-30T02:24:55;102395.41;;;25.25;22.05
41513;BME280;27244;59.940;30.280;2024-01-30T02:27:22;102402.28;;;25.24;22.18
41513;BME280;27244;59.940;30.280;2024-01-30T02:29:49;102412.38;;;25.25;22.08
41513;BME280;27244;59.940;30.280;2024-01-30T02:32:16;102405.09;;;25.24;22.46
41513;BME280;27244;59.940;30.280;2024-01-30T02:34:43;102409.94;;;25.23;22.18
41513;BME280;27244;59.940;30.280;2024-01-30T02:37:10;102416.41;;;25.24;22.10
41513;BME280;27244;59.940;30.280;2024-01-30T02:39:38;102419.22;;;25.24;22.16
41513;BME280;27244;59.940;30.280;2024-01-30T02:42:06;102414.81;;;25.19;22.21
41513;BME280;27244;59.940;30.280;2024-01-30T02:44:33;102420.44;;;25.23;22.21
41513;BME280;27244;59.940;30.280;2024-01-30T02:47:00;102418.81;;;25.22;22.34
41513;BME280;27244;59.940;30.280;2024-01-30T02:49:27;102423.69;;;25.21;22.03
41513;BME280;27244;59.940;30.280;2024-01-30T02:51:54;102418.03;;;25.21;22.02
41513;BME280;27244;59.940;30.280;2024-01-30T02:54:22;102422.88;;;25.21;22.37
41513;BME280;27244;59.940;30.280;2024-01-30T02:56:50;102432.94;;;25.22;22.20
41513;BME280;27244;59.940;30.280;2024-01-30T02:59:18;102432.97;;;25.18;22.47
41513;BME280;27244;59.940;30.280;2024-01-30T03:01:45;102433.38;;;25.20;22.03
41513;BME280;27244;59.940;30.280;2024-01-30T03:04:13;102428.13;;;25.19;22.04
41513;BME280;27244;59.940;30.280;2024-01-30T03:06:45;102424.47;;;25.22;22.22
41513;BME280;27244;59.940;30.280;2024-01-30T03:09:13;102424.50;;;25.18;22.32
41513;BME280;27244;59.940;30.280;2024-01-30T03:11:40;102434.59;;;25.19;22.25
41513;BME280;27244;59.940;30.280;2024-01-30T03:14:08;102437.03;;;25.17;22.13
41513;BME280;27244;59.940;30.280;2024-01-30T03:16:37;102442.25;;;25.19;22.25
41513;BME280;27244;59.940;30.280;2024-01-30T03:19:05;102438.63;;;25.18;21.98
41513;BME280;27244;59.940;30.280;2024-01-30T03:21:33;102434.22;;;25.14;22.15
41513;BME280;27244;59.940;30.280;2024-01-30T03:24:03;102435.44;;;25.13;22.23
41513;BME280;27244;59.940;30.280;2024-01-30T03:26:30;102444.69;;;25.17;22.01
41513;BME280;27244;59.940;30.280;2024-01-30T03:28:57;102442.28;;;25.15;22.26
41513;BME280;27244;59.940;30.280;2024-01-30T03:31:26;102438.63;;;25.15;21.96
41513;BME280;27244;59.940;30.280;2024-01-30T03:33:52;102452.75;;;25.15;22.04
41513;BME280;27244;59.940;30.280;2024-01-30T03:36:19;102456.81;;;25.14;22.25
41513;BME280;27244;59.940;30.280;2024-01-30T03:38:46;102470.13;;;25.13;22.48
41513;BME280;27244;59.940;30.280;2024-01-30T03:41:14;102465.69;;;25.16;22.03
41513;BME280;27244;59.940;30.280;2024-01-30T03:43:41;102456.81;;;25.14;22.50
41513;BME280;27244;59.940;30.280;2024-01-30T03:46:08;102450.78;;;25.12;22.17
41513;BME280;27244;59.940;30.280;2024-01-30T03:48:36;102456.81;;;25.14;22.18
41513;BME280;27244;59.940;30.280;2024-01-30T03:51:04;102460.06;;;25.12;22.48
41513;BME280;27244;59.940;30.280;2024-01-30T03:53:31;102452.41;;;25.09;22.35
41513;BME280;27244;59.940;30.280;2024-01-30T03:55:58;102461.66;;;25.13;22.35
41513;BME280;27244;59.940;30.280;2024-01-30T03:58:25;102467.72;;;25.12;22.27
41513;BME280;27244;59.940;30.280;2024-01-30T04:00:52;102469.72;;;25.11;22.04
41513;BME280;27244;59.940;30.280;2024-01-30T04:03:19;102467.72;;;25.12;22.12
41513;BME280;27244;59.940;30.280;2024-01-30T04:05:48;102462.06;;;25.12;21.94
41513;BME280;27244;59.940;30.280;2024-01-30T04:08:15;102464.50;;;25.10;22.12
41513;BME280;27244;59.940;30.280;2024-01-30T04:10:42;102464.88;;;25.12;22.11
41513;BME280;27244;59.940;30.280;2024-01-30T04:13:09;102462.50;;;25.10;22.09
41513;BME280;27244;59.940;30.280;2024-01-30T04:15:36;102453.22;;;25.10;22.06
41513;BME280;27244;59.940;30.280;2024-01-30T04:18:06;102459.66;;;25.14;22.09
41513;BME280;27244;59.940;30.280;2024-01-30T04:20:33;102458.88;;;25.10;22.29
41513;BME280;27244;59.940;30.280;2024-01-30T04:23:02;102464.91;;;25.08;22.08
41513;BME280;27244;59.940;30.280;2024-01-30T04:25:29;102462.91;;;25.09;21.97
41513;BME280;27244;59.940;30.280;2024-01-30T04:27:56;102458.06;;;25.09;22.07
41513;BME280;27244;59.940;30.280;2024-01-30T04:30:23;102455.63;;;25.08;22.19
41513;BME280;27244;59.940;30.280;2024-01-30T04:32:50;102448.78;;;25.09;22.12
41513;BME280;27244;59.940;30.280;2024-01-30T04:35:17;102447.16;;;25.08;22.39
41513;BME280;27244;59.940;30.280;2024-01-30T04:37:46;102445.97;;;25.09;22.06
41513;BME280;27244;59.940;30.280;2024-01-30T04:40:14;102436.69;;;25.08;22.12
41513;BME280;27244;59.940;30.280;2024-01-30T04:42:41;102448.41;;;25.07;22.18
41513;BME280;27244;59.940;30.280;2024-01-30T04:45:09;102449.63;;;25.06;22.04
41513;BME280;27244;59.940;30.280;2024-01-30T04:47:36;102447.97;;;25.08;22.18
41513;BME280;27244;59.940;30.280;2024-01-30T04:50:05;102441.16;;;25.02;22.36
41513;BME280;27244;59.940;30.280;2024-01-30T04:52:32;102452.84;;;25.04;21.89
41513;BME280;27244;59.940;30.280;2024-01-30T04:54:59;102456.06;;;25.06;22.16
41513;BME280;27244;59.940;30.280;2024-01-30T04:57:28;102455.63;;;25.08;21.97
41513;BME280;27244;59.940;30.280;2024-01-30T04:59:56;102459.69;;;25.07;21.83
41513;BME280;27244;59.940;30.280;2024-01-30T05:02:23;102452.44;;;25.06;22.07
41513;BME280;27244;59.940;30.280;2024-01-30T05:04:50;102455.25;;;25.06;22.24
41513;BME280;27244;59.940;30.280;2024-01-30T05:07:17;102462.13;;;25.05;21.84
41513;BME280;27244;59.940;30.280;2024-01-30T05:09:44;102472.19;;;25.06;22.35
41513;BME280;27244;59.940;30.280;2024-01-30T05:12:11;102468.16;;;25.07;22.25
41513;BME280;27244;59.940;30.280;2024-01-30T05:14:40;102466.56;;;25.06;22.18
41513;BME280;27244;59.940;30.280;2024-01-30T05:17:07;102459.28;;;25.05;22.10
41513;BME280;27244;59.940;30.280;2024-01-30T05:19:35;102471.78;;;25.04;22.27
41513;BME280;27244;59.940;30.280;2024-01-30T05:22:02;102475.44;;;25.04;22.04
41513;BME280;27244;59.940;30.280;2024-01-30T05:24:29;102480.66;;;25.06;22.33
41513;BME280;27244;59.940;30.280;2024-01-30T05:26:57;102480.25;;;25.04;22.11
41513;BME280;27244;59.940;30.280;2024-01-30T05:29:24;102485.53;;;25.02;22.22
41513;BME280;27244;59.940;30.280;2024-01-30T05:31:53;102493.19;;;25.05;22.25
41513;BME280;27244;59.940;30.280;2024-01-30T05:34:20;102500.47;;;25.02;22.22
41513;BME280;27244;59.940;30.280;2024-01-30T05:36:47;102495.63;;;25.03;21.96
41513;BME280;27244;59.940;30.280;2024-01-30T05:39:14;102492.34;;;25.08;22.64
41513;BME280;27244;59.940;30.280;2024-01-30T05:41:41;102503.22;;;25.13;22.38
41513;BME280;27244;59.940;30.280;2024-01-30T05:44:11;102504.41;;;25.15;22.66
41513;BME280;27244;59.940;30.280;2024-01-30T05:46:38;102506.38;;;25.22;22.71
41513;BME280;27244;59.940;30.280;2024-01-30T05:49:06;102512.84;;;25.22;22.83
41513;BME280;27244;59.940;30.280;2024-01-30T05:51:33;102516.06;;;25.24;22.77
41513;BME280;27244;59.940;30.280;2024-01-30T05:54:00;102520.84;;;25.31;22.87
41513;BME280;27244;59.940;30.280;2024-01-30T05:56:29;102526.09;;;25.32;22.98
41513;BME280;27244;59.940;30.280;2024-01-30T05:58:56;102515.59;;;25.33;22.99
41513;BME280;27244;59.940;30.280;2024-01-30T06:01:23;102525.25;;;25.39;23.07
41513;BME280;27244;59.940;30.280;2024-01-30T06:03:50;102521.16;;;25.43;22.99
41513;BME280;27244;59.940;30.280;2024-01-30T06:06:18;102522.38;;;25.46;23.15
41513;BME280;27244;59.940;30.280;2024-01-30T06:08:45;102528.81;;;25.50;23.16
41513;BME280;27244;59.940;30.280;2024-01-30T06:11:13;102514.69;;;25.50;23.44
41513;BME280;27244;59.940;30.280;2024-01-30T06:13:40;102524.34;;;25.56;23.49
41513;BME280;27244;59.940;30.280;2024-01-30T06:16:09;102520.31;;;25.57;23.53
41513;BME280;27244;59.940;30.280;2024-01-30T06:18:37;102515.84;;;25.60;23.58
41513;BME280;27244;59.940;30.280;2024-01-30T06:21:04;102515.41;;;25.61;23.66
41513;BME280;27244;59.940;30.280;2024-01-30T06:23:33;102520.25;;;25.64;23.57
41513;BME280;27244;59.940;30.280;2024-01-30T06:26:00;102506.19;;;25.57;23.71
41513;BME280;27244;59.940;30.280;2024-01-30T06:28:27;102519.00;;;25.65;23.59
41513;BME280;27244;59.940;30.280;2024-01-30T06:30:54;102516.19;;;25.65;23.94
41513;BME280;27244;59.940;30.280;2024-01-30T06:33:21;102518.59;;;25.70;23.94
41513;BME280;27244;59.940;30.280;2024-01-30T06:35:48;102525.84;;;25.71;23.79
41513;BME280;27244;59.940;30.280;2024-01-30T06:38:15;102526.28;;;25.66;24.05
41513;BME280;27244;59.940;30.280;2024-01-30T06:40:44;102537.16;;;25.71;24.17
41513;BME280;27244;59.940;30.280;2024-01-30T06:43:11;102539.19;;;25.71;24.24
41513;BME280;27244;59.940;30.280;2024-01-30T06:45:38;102546.81;;;25.74;24.18
41513;BME280;27244;59.940;30.280;2024-01-30T06:48:06;102533.94;;;25.69;24.20
41513;BME280;27244;59.940;30.280;2024-01-30T06:50:33;102543.59;;;25.75;24.47
41513;BME280;27244;59.940;30.280;2024-01-30T06:53:00;102550.03;;;25.76;24.25
41513;BME280;27244;59.940;30.280;2024-01-30T06:55:27;102549.25;;;25.75;24.48
41513;BME280;27244;59.940;30.280;2024-01-30T06:57:57;102547.59;;;25.78;24.39
41513;BME280;27244;59.940;30.280;2024-01-30T07:00:24;102554.44;;;25.80;24.53
41513;BME280;27244;59.940;30.280;2024-01-30T07:02:51;102542.75;;;25.78;24.50
41513;BME280;27244;59.940;30.280;2024-01-30T07:05:18;102546.34;;;25.82;24.42
41513;BME280;27244;59.940;30.280;2024-01-30T07:07:47;102543.13;;;25.80;24.38
41513;BME280;27244;59.940;30.280;2024-01-30T07:10:22;102549.56;;;25.84;24.32
41513;BME280;27244;59.940;30.280;2024-01-30T07:12:49;102545.94;;;25.80;24.60
41513;BME280;27244;59.940;30.280;2024-01-30T07:15:17;102560.03;;;25.87;24.67
41513;BME280;27244;59.940;30.280;2024-01-30T07:17:47;102558.03;;;25.84;25.07
41513;BME280;27244;59.940;30.280;2024-01-30T07:20:14;102560.03;;;25.87;24.81
41513;BME280;27244;59.940;30.280;2024-01-30T07:22:41;102564.44;;;25.92;25.06
41513;BME280;27244;59.940;30.280;2024-01-30T07:25:08;102565.66;;;25.91;24.96
41513;BME280;27244;59.940;30.280;2024-01-30T07:27:35;102564.44;;;25.92;24.92
41513;BME280;27244;59.940;30.280;2024-01-30T07:30:03;102567.66;;;25.90;25.19
41513;BME280;27244;59.940;30.280;2024-01-30T07:32:32;102562.00;;;25.94;25.13
41513;BME280;27244;59.940;30.280;2024-01-30T07:34:59;102559.59;;;25.92;24.88
41513;BME280;27244;59.940;30.280;2024-01-30T07:37:26;102573.66;;;26.00;24.85
41513;BME280;27244;59.940;30.280;2024-01-30T07:39:55;102568.00;;;26.00;25.24
41513;BME280;27244;59.940;30.280;2024-01-30T07:42:22;102570.00;;;26.03;25.23
41513;BME280;27244;59.940;30.280;2024-01-30T07:44:49;102558.69;;;26.03;25.07
41513;BME280;27244;59.940;30.280;2024-01-30T07:47:16;102563.53;;;26.02;25.22
41513;BME280;27244;59.940;30.280;2024-01-30T07:49:44;102563.91;;;26.08;24.86
41513;BME280;27244;59.940;30.280;2024-01-30T07:52:11;102565.94;;;26.07;24.95
41513;BME280;27244;59.940;30.280;2024-01-30T07:57:57;102557.44;;;26.07;24.90
41513;BME280;27244;59.940;30.280;2024-01-30T08:00:24;102562.28;;;26.07;25.39
41513;BME280;27244;59.940;30.280;2024-01-30T08:02:52;102559.47;;;26.07;25.77
41513;BME280;27244;59.940;30.280;2024-01-30T08:05:22;102561.56;;;25.99;25.34
41513;BME280;27244;59.940;30.280;2024-01-30T08:07:50;102566.44;;;25.95;25.50
41513;BME280;27244;59.940;30.280;2024-01-30T08:10:17;102567.66;;;25.90;25.45
41513;BME280;27244;59.940;30.280;2024-01-30T08:12:44;102568.13;;;25.85;25.40
41513;BME280;27244;59.940;30.280;2024-01-30T08:15:12;102572.19;;;25.84;25.71
41513;BME280;27244;59.940;30.280;2024-01-30T08:17:39;102573.00;;;25.81;25.70
41513;BME280;27244;59.940;30.280;2024-01-30T08:20:07;102571.84;;;25.75;25.65
41513;BME280;27244;59.940;30.280;2024-01-30T08:22:38;102579.06;;;25.80;25.96
41513;BME280;27244;59.940;30.280;2024-01-30T08:25:06;102577.88;;;25.77;25.89
41513;BME280;27244;59.940;30.280;2024-01-30T08:27:33;102575.06;;;25.77;25.82
41513;BME280;27244;59.940;30.280;2024-01-30T08:30:01;102574.72;;;25.72;26.11
41513;BME280;27244;59.940;30.280;2024-01-30T08:32:28;102569.44;;;25.74;25.95
41513;BME280;27244;59.940;30.280;2024-01-30T08:34:55;102568.25;;;25.71;26.07
41513;BME280;27244;59.940;30.280;2024-01-30T08:37:22;102562.16;;;25.73;26.02
41513;BME280;27244;59.940;30.280;2024-01-30T08:39:51;102560.16;;;25.73;25.91
41513;BME280;27244;59.940;30.280;2024-01-30T08:42:18;102563.41;;;25.72;25.82
41513;BME280;27244;59.940;30.280;2024-01-30T08:44:48;102565.81;;;25.70;26.23
41513;BME280;27244;59.940;30.280;2024-01-30T08:47:17;102562.97;;;25.73;26.35
41513;BME280;27244;59.940;30.280;2024-01-30T08:49:44;102566.59;;;25.74;26.41
41513;BME280;27244;59.940;30.280;2024-01-30T08:52:11;102563.81;;;25.70;26.47
41513;BME280;27244;59.940;30.280;2024-01-30T08:54:38;102570.25;;;25.74;26.31
41513;BME280;27244;59.940;30.280;2024-01-30T08:57:07;102572.66;;;25.72;26.52
41513;BME280;27244;59.940;30.280;2024-01-30T08:59:34;102572.25;;;25.74;26.84
41513;BME280;27244;59.940;30.280;2024-01-30T09:02:01;102579.09;;;25.76;26.97
41513;BME280;27244;59.940;30.280;2024-01-30T09:04:29;102579.13;;;25.73;26.74
41513;BME280;27244;59.940;30.280;2024-01-30T09:06:56;102575.06;;;25.77;26.94
41513;BME280;27244;59.940;30.280;2024-01-30T09:09:23;102577.88;;;25.77;26.96
41513;BME280;27244;59.940;30.280;2024-01-30T09:11:50;102573.06;;;25.74;27.14
41513;BME280;27244;59.940;30.280;2024-01-30T09:14:19;102576.69;;;25.75;26.80
41513;BME280;27244;59.940;30.280;2024-01-30T09:16:46;102577.06;;;25.77;27.03
41513;BME280;27244;59.940;30.280;2024-01-30T09:19:14;102573.44;;;25.76;27.01
41513;BME280;27244;59.940;30.280;2024-01-30T09:21:41;102582.34;;;25.75;26.97
41513;BME280;27244;59.940;30.280;2024-01-30T09:24:08;102574.69;;;25.75;26.85
41513;BME280;27244;59.940;30.280;2024-01-30T09:26:36;102580.72;;;25.77;27.29
41513;BME280;27244;59.940;30.280;2024-01-30T09:29:03;102583.53;;;25.77;26.89
41513;BME280;27244;59.940;30.280;2024-01-30T09:31:31;102590.00;;;25.78;27.13
41513;BME280;27244;59.940;30.280;2024-01-30T09:33:58;102591.63;;;25.79;27.19
41513;BME280;27244;59.940;30.280;2024-01-30T09:36:25;102603.72;;;25.79;26.84
41513;BME280;27244;59.940;30.280;2024-01-30T09:38:53;102594.88;;;25.74;26.93
41513;BME280;27244;59.940;30.280;2024-01-30T09:41:22;102600.47;;;25.81;27.11
41513;BME280;27244;59.940;30.280;2024-01-30T09:43:51;102606.53;;;25.79;27.26
41513;BME280;27244;59.940;30.280;2024-01-30T09:46:21;102596.84;;;25.80;27.21
41513;BME280;27244;59.940;30.280;2024-01-30T09:48:54;102600.88;;;25.79;26.91
41513;BME280;27244;59.940;30.280;2024-01-30T09:51:22;102600.09;;;25.79;27.22
41513;BME280;27244;59.940;30.280;2024-01-30T09:53:49;102597.69;;;25.77;27.39
41513;BME280;27244;59.940;30.280;2024-01-30T09:56:17;102589.63;;;25.72;27.37
41513;BME280;27244;59.940;30.280;2024-01-30T09:58:44;102588.81;;;25.75;27.44
41513;BME280;27244;59.940;30.280;2024-01-30T10:01:12;102583.94;;;25.76;27.07
41513;BME280;27244;59.940;30.280;2024-01-30T10:03:44;102593.22;;;25.76;26.85
41513;BME280;27244;59.940;30.280;2024-01-30T10:06:14;102593.63;;;25.82;27.33
41513;BME280;27244;59.940;30.280;2024-01-30T10:08:43;102589.56;;;25.79;27.06
41513;BME280;27244;59.940;30.280;2024-01-30T10:11:10;102583.53;;;25.77;26.92
41513;BME280;27244;59.940;30.280;2024-01-30T10:13:38;102586.38;;;25.77;26.82
41513;BME280;27244;59.940;30.280;2024-01-30T10:16:06;102594.44;;;25.79;26.79
41513;BME280;27244;59.940;30.280;2024-01-30T10:18:33;102587.97;;;25.78;26.87
41513;BME280;27244;59.940;30.280;2024-01-30T10:21:05;102599.28;;;25.78;26.92
41513;BME280;27244;59.940;30.280;2024-01-30T10:23:33;102592.81;;;25.81;26.87
41513;BME280;27244;59.940;30.280;2024-01-30T10:26:03;102593.19;;;25.80;26.73
41513;BME280;27244;59.940;30.280;2024-01-30T10:28:31;102598.06;;;25.79;27.01
41513;BME280;27244;59.940;30.280;2024-01-30T10:30:58;102600.50;;;25.77;26.80
41513;BME280;27244;59.940;30.280;2024-01-30T10:33:26;102601.72;;;25.76;26.63
41513;BME280;27244;59.940;30.280;2024-01-30T10:35:55;102600.88;;;25.79;26.82
41513;BME280;27244;59.940;30.280;2024-01-30T10:38:28;102598.88;;;25.76;26.91
41513;BME280;27244;59.940;30.280;2024-01-30T10:40:59;102606.56;;;25.76;27.50
41513;BME280;27244;59.940;30.280;2024-01-30T10:43:30;102610.59;;;25.78;27.50
41513;BME280;27244;59.940;30.280;2024-01-30T10:46:05;102612.19;;;25.79;27.35
41513;BME280;27244;59.940;30.280;2024-01-30T10:48:36;102604.94;;;25.78;27.85
41513;BME280;27244;59.940;30.280;2024-01-30T10:51:09;102604.94;;;25.78;27.89
41513;BME280;27244;59.940;30.280;2024-01-30T10:53:38;102601.69;;;25.80;27.57
41513;BME280;27244;59.940;30.280;2024-01-30T10:56:08;102598.84;;;25.80;27.85
41513;BME280;27244;59.940;30.280;2024-01-30T10:58:37;102598.06;;;25.79;28.15
41513;BME280;27244;59.940;30.280;2024-01-30T11:01:05;102599.28;;;25.78;27.89
41513;BME280;27244;59.940;30.280;2024-01-30T11:03:33;102604.09;;;25.81;27.96
41513;BME280;27244;59.940;30.280;2024-01-30T11:06:03;102600.88;;;25.79;28.03
41513;BME280;27244;59.940;30.280;2024-01-30T11:08:32;102600.06;;;25.82;28.21
41513;BME280;27244;59.940;30.280;2024-01-30T11:11:00;102600.06;;;25.82;28.37
41513;BME280;27244;59.940;30.280;2024-01-30T11:13:29;102606.09;;;25.84;28.32
41513;BME280;27244;59.940;30.280;2024-01-30T11:16:00;102611.75;;;25.84;28.10
41513;BME280;27244;59.940;30.280;2024-01-30T11:18:28;102616.09;;;26.00;27.28
41513;BME280;27244;59.940;30.280;2024-01-30T11:20:56;102612.97;;;25.83;28.49
41513;BME280;27244;59.940;30.280;2024-01-30T11:23:23;102608.56;;;25.82;28.32
41513;BME280;27244;59.940;30.280;2024-01-30T11:29:35;102602.09;;;25.82;28.50
41513;BME280;27244;59.940;30.280;2024-01-30T11:32:02;102600.13;;;25.75;28.40
